Time;durP1;ratioP1;P1;durP2;ratioP2;P2;SDS_P1;SDS_P2;PMS_P1;PMS_P2;Temp;Humidity;BMP_temperature;BMP_pressure;BME280_temperature;BME280_humidity;BME280_pressure;Samples;Min_cycle;Max_cycle;Signal;HPM_P1;HPM_P2
2023/02/17 00:00:10;;;;;;;6.72;4.20;;;;;;;18.05;46.77;101858.59;5033770;28;20029;-61
2023/02/17 00:02:35;;;;;;;6.22;3.28;;;;;;;18.08;47.20;101868.28;5000276;28;20052;-62
2023/02/17 00:05:01;;;;;;;7.03;3.70;;;;;;;18.07;46.37;101863.84;5032497;28;20497;-62
2023/02/17 00:07:30;;;;;;;4.72;3.45;;;;;;;18.06;47.15;101851.31;5032348;28;20040;-62
2023/02/17 00:09:56;;;;;;;6.65;4.22;;;;;;;18.09;47.09;101856.44;5033394;28;20040;-61
2023/02/17 00:12:21;;;;;;;8.75;4.07;;;;;;;18.09;46.43;101856.44;5015741;28;20033;-61
2023/02/17 00:14:47;;;;;;;7.38;3.80;;;;;;;18.08;47.16;101849.28;5015643;28;20034;-61
2023/02/17 00:17:13;;;;;;;5.93;3.75;;;;;;;18.09;47.17;101856.44;5015951;28;20512;-62
2023/02/17 00:19:38;;;;;;;7.15;3.85;;;;;;;18.10;47.23;101858.97;5015780;28;20143;-61
2023/02/17 00:22:03;;;;;;;7.10;3.83;;;;;;;18.08;46.77;101855.56;5033244;28;20037;-61
2023/02/17 00:24:30;;;;;;;7.70;3.83;;;;;;;18.08;47.29;101852.00;5015738;28;20029;-61
2023/02/17 00:26:56;;;;;;;7.00;3.60;;;;;;;18.02;47.43;101851.59;4999199;28;20120;-61
2023/02/17 00:29:21;;;;;;;7.43;3.33;;;;;;;18.04;46.38;101849.59;5033994;28;20185;-61
2023/02/17 00:31:47;;;;;;;7.78;3.13;;;;;;;18.04;46.46;101849.59;5015352;28;20069;-62
2023/02/17 00:34:12;;;;;;;4.63;3.17;;;;;;;18.04;47.45;101843.31;4999293;28;20501;-61
2023/02/17 00:36:38;;;;;;;9.27;3.28;;;;;;;18.04;47.72;101848.72;5029109;28;20524;-61
2023/02/17 00:39:05;;;;;;;8.20;3.83;;;;;;;18.03;47.63;101842.44;5035561;28;20029;-62
2023/02/17 00:41:31;;;;;;;7.75;3.60;;;;;;;18.02;47.37;101832.63;5035720;28;20036;-62
2023/02/17 00:43:56;;;;;;;8.27;3.47;;;;;;;18.07;47.50;101837.56;5035095;28;20562;-61
2023/02/17 00:46:22;;;;;;;6.75;3.22;;;;;;;18.09;47.16;101834.72;5034989;28;20524;-62
2023/02/17 00:48:48;;;;;;;5.60;3.35;;;;;;;18.07;46.98;101825.88;5034960;28;20033;-61
2023/02/17 00:51:14;;;;;;;6.00;3.42;;;;;;;18.08;47.37;101833.00;5034890;28;20033;-61
2023/02/17 00:53:40;;;;;;;5.32;3.33;;;;;;;18.06;46.68;101818.75;5053117;28;20099;-62
2023/02/17 00:56:06;;;;;;;6.22;3.75;;;;;;;18.05;46.58;101823.34;5018337;28;20030;-61
2023/02/17 00:58:32;;;;;;;9.00;3.80;;;;;;;18.04;47.08;101810.75;5018388;28;20386;-63
2023/02/17 01:00:57;;;;;;;6.28;3.47;;;;;;;18.03;47.08;101803.66;5052699;28;20036;-61
2023/02/17 01:03:23;;;;;;;11.98;3.70;;;;;;;18.04;47.21;101799.91;5033673;28;20037;-61
2023/02/17 01:05:49;;;;;;;5.75;3.45;;;;;;;18.03;47.82;101804.47;5018144;28;20033;-61
2023/02/17 01:08:16;;;;;;;5.28;3.38;;;;;;;18.02;46.80;101802.81;5035142;28;20025;-62
2023/02/17 01:10:43;;;;;;;4.47;3.08;;;;;;;18.02;48.10;101810.94;5018390;28;20104;-61
2023/02/17 01:13:09;;;;;;;7.47;3.67;;;;;;;18.04;47.12;101811.63;5036681;28;20125;-61
2023/02/17 01:15:44;;;;;;;6.57;3.92;;;;;;;18.08;48.02;101816.75;5019524;28;20466;-61
2023/02/17 01:18:09;;;;;;;9.07;3.72;;;;;;;18.08;47.16;101814.03;5036339;28;20555;-62
2023/02/17 01:20:39;;;;;;;5.75;3.30;;;;;;;18.06;47.76;101803.34;5018835;28;20040;-61
2023/02/17 01:23:05;;;;;;;7.20;3.70;;;;;;;18.08;47.83;101803.19;5018011;28;20041;-61
2023/02/17 01:25:31;;;;;;;7.18;4.03;;;;;;;18.09;47.34;101802.19;5034793;28;20056;-61
2023/02/17 01:27:56;;;;;;;4.45;2.85;;;;;;;18.08;47.97;101801.34;5034675;28;20505;-62
2023/02/17 01:30:22;;;;;;;7.00;3.58;;;;;;;18.08;47.12;101787.78;5050032;28;20499;-62
2023/02/17 01:32:47;;;;;;;7.20;3.28;;;;;;;18.08;47.39;101789.63;5052251;28;20033;-62
2023/02/17 01:35:13;;;;;;;5.07;3.20;;;;;;;18.07;48.26;101777.91;5034919;28;20488;-61
2023/02/17 01:37:38;;;;;;;6.28;3.67;;;;;;;18.06;47.04;101780.81;5034488;28;20037;-61
2023/02/17 01:40:04;;;;;;;8.48;3.13;;;;;;;18.04;47.70;101773.66;5034558;28;20033;-61
2023/02/17 01:42:30;;;;;;;5.05;3.20;;;;;;;18.06;48.29;101780.81;5051093;28;20025;-61
2023/02/17 01:45:29;;;;;;;5.90;2.72;;;;;;;18.00;47.65;101777.72;5021569;28;20130;-61
2023/02/17 01:48:05;;;;;;;8.35;3.47;;;;;;;18.04;47.80;101776.38;5055972;28;20489;-62
2023/02/17 01:50:34;;;;;;;6.45;3.42;;;;;;;18.02;48.07;101775.69;5038630;28;20069;-61
2023/02/17 01:53:00;;;;;;;4.95;3.15;;;;;;;18.04;48.39;101780.94;5021648;28;20082;-61
2023/02/17 01:55:26;;;;;;;9.15;3.30;;;;;;;18.04;48.02;101772.81;5021570;28;20455;-62
2023/02/17 01:57:53;;;;;;;6.10;3.60;;;;;;;18.03;48.45;101780.09;5054671;28;20156;-61
2023/02/17 02:00:19;;;;;;;5.55;3.70;;;;;;;18.04;48.19;101779.09;5021607;28;20029;-61
2023/02/17 02:02:47;;;;;;;5.15;3.35;;;;;;;18.04;48.20;101768.25;5022275;28;20025;-62
2023/02/17 02:05:13;;;;;;;7.43;3.92;;;;;;;18.09;47.66;101758.81;5038220;28;20037;-61
2023/02/17 02:07:40;;;;;;;4.32;3.08;;;;;;;18.09;48.11;101756.09;5038046;28;20113;-62
2023/02/17 02:10:08;;;;;;;6.40;3.95;;;;;;;18.10;47.72;101755.06;5038154;28;20116;-62
2023/02/17 02:12:36;;;;;;;6.35;3.70;;;;;;;18.11;47.34;101751.34;5037814;28;20049;-61
2023/02/17 02:15:23;;;;;;;9.57;3.90;;;;;;;18.12;48.27;101753.06;5021189;28;20114;-61
2023/02/17 02:18:17;;;;;;;6.47;4.80;;;;;;;18.13;48.29;101750.19;5052244;28;20056;-61
2023/02/17 02:20:51;;;;;;;6.15;3.40;;;;;;;18.11;48.43;101751.34;5038166;28;20021;-61
2023/02/17 02:23:41;;;;;;;6.38;4.05;;;;;;;18.09;47.46;101753.38;5037650;28;20041;-61
2023/02/17 02:26:25;;;;;;;7.80;3.63;;;;;;;18.08;47.24;101743.53;5037479;28;20037;-61
2023/02/17 02:28:57;;;;;;;5.90;3.92;;;;;;;18.09;48.17;101739.81;5054259;28;20501;-61
2023/02/17 02:31:35;;;;;;;6.68;4.15;;;;;;;18.09;48.38;101750.66;5055368;28;20037;-61
2023/02/17 02:34:08;;;;;;;8.88;4.07;;;;;;;18.07;48.02;101758.94;5020673;28;20504;-61
2023/02/17 02:36:37;;;;;;;7.65;3.70;;;;;;;18.09;47.21;101758.81;5021212;28;20033;-62
2023/02/17 02:39:03;;;;;;;5.43;3.60;;;;;;;18.08;47.16;101762.50;5037210;28;20547;-61
2023/02/17 02:41:59;;;;;;;5.85;4.22;;;;;;;18.07;48.46;101755.38;5021215;28;20477;-62
2023/02/17 02:44:25;;;;;;;7.72;4.20;;;;;;;18.06;48.26;101750.97;5053606;28;20049;-61
2023/02/17 02:47:00;;;;;;;5.68;3.90;;;;;;;18.09;48.06;101758.81;5020669;28;20043;-62
2023/02/17 02:49:27;;;;;;;7.57;4.18;;;;;;;18.07;47.47;101756.22;5037290;28;20044;-61
2023/02/17 02:52:01;;;;;;;6.53;3.75;;;;;;;18.10;47.69;101755.06;5054721;28;20505;-62
2023/02/17 02:54:31;;;;;;;6.53;3.55;;;;;;;18.07;47.53;101755.38;5036479;28;20033;-62
2023/02/17 02:57:08;;;;;;;5.13;3.92;;;;;;;18.07;47.75;101756.22;5036664;28;20032;-62
2023/02/17 02:59:46;;;;;;;5.60;3.55;;;;;;;18.08;47.89;101754.38;5037201;28;20033;-62
2023/02/17 03:02:21;;;;;;;9.20;4.45;;;;;;;18.04;48.08;101749.25;5036954;28;20067;-62
2023/02/17 03:05:00;;;;;;;6.95;3.85;;;;;;;18.08;47.77;101752.53;5053522;28;20029;-61
2023/02/17 03:07:35;;;;;;;5.75;3.70;;;;;;;18.11;47.76;101754.94;5020233;28;20120;-62
2023/02/17 03:10:00;;;;;;;8.32;4.03;;;;;;;18.09;48.21;101746.06;5020391;28;20037;-62
2023/02/17 03:12:26;;;;;;;6.95;4.10;;;;;;;18.13;47.83;101735.78;5036561;28;20029;-61
2023/02/17 03:14:57;;;;;;;5.15;3.55;;;;;;;18.14;47.66;101730.22;5036466;28;20021;-62
2023/02/17 03:17:22;;;;;;;7.75;3.65;;;;;;;18.15;47.64;101729.19;5054845;28;20093;-61
2023/02/17 03:19:48;;;;;;;5.60;3.20;;;;;;;18.16;48.06;101724.63;5036586;28;20549;-62
2023/02/17 03:22:21;;;;;;;10.55;4.45;;;;;;;18.16;48.33;101717.34;5020024;28;20382;-62
2023/02/17 03:24:47;;;;;;;6.78;3.72;;;;;;;18.17;48.48;101718.19;5019969;28;20108;-61
2023/02/17 03:27:12;;;;;;;7.88;4.05;;;;;;;18.18;47.61;101726.16;5036227;28;20571;-61
2023/02/17 03:29:38;;;;;;;7.50;4.35;;;;;;;18.18;47.60;101717.16;5036783;28;20393;-61
2023/02/17 03:32:03;;;;;;;6.25;3.50;;;;;;;18.15;48.57;101703.91;5036656;28;20111;-62
2023/02/17 03:34:29;;;;;;;7.45;3.42;;;;;;;18.17;47.96;101710.06;5019920;28;20112;-62
2023/02/17 03:36:54;;;;;;;5.18;3.38;;;;;;;18.16;48.08;101711.06;5036096;28;20036;-61
2023/02/17 03:39:20;;;;;;;6.22;3.60;;;;;;;18.14;48.25;101697.66;5036052;28;20041;-61
2023/02/17 03:41:49;;;;;;;4.68;3.28;;;;;;;18.16;48.18;101711.06;5054313;28;20454;-62
2023/02/17 03:44:14;;;;;;;5.22;3.80;;;;;;;18.15;47.49;101703.91;5036187;28;20107;-62
2023/02/17 03:46:40;;;;;;;6.50;3.33;;;;;;;18.15;48.36;101714.75;5053962;28;20029;-62
2023/02/17 03:49:05;;;;;;;4.93;3.53;;;;;;;18.14;48.61;101708.53;5035957;28;20032;-61
2023/02/17 03:51:31;;;;;;;4.18;3.30;;;;;;;18.14;48.83;101713.94;5053357;28;20036;-61
2023/02/17 03:53:56;;;;;;;7.45;3.30;;;;;;;18.12;48.41;101705.09;5045628;28;20113;-62
2023/02/17 03:56:22;;;;;;;5.57;3.17;;;;;;;18.14;48.26;101713.09;5000256;28;20040;-61
2023/02/17 03:58:47;;;;;;;4.13;3.25;;;;;;;18.12;48.09;101706.97;5016031;28;20057;-61
2023/02/17 04:01:13;;;;;;;5.03;3.30;;;;;;;18.11;47.95;101711.53;5016056;28;20052;-62
2023/02/17 04:03:38;;;;;;;6.05;3.50;;;;;;;18.08;48.48;101708.28;5016100;28;20029;-62
2023/02/17 04:06:05;;;;;;;6.10;3.67;;;;;;;18.11;48.48;101714.25;5015621;28;20021;-62
2023/02/17 04:08:30;;;;;;;6.75;3.30;;;;;;;18.12;47.75;101715.09;5015818;28;20026;-62
2023/02/17 04:10:58;;;;;;;4.90;3.35;;;;;;;18.13;48.54;101716.78;5033636;28;20544;-62
2023/02/17 04:13:24;;;;;;;4.85;3.08;;;;;;;18.11;48.30;101710.69;4999369;28;20033;-62
2023/02/17 04:15:50;;;;;;;7.35;3.70;;;;;;;18.13;48.58;101722.22;5015835;28;20072;-62
2023/02/17 04:18:16;;;;;;;6.80;3.75;;;;;;;18.14;48.70;101710.38;5015627;28;20033;-61
2023/02/17 04:20:42;;;;;;;5.40;3.50;;;;;;;18.14;48.72;101713.09;5016128;28;20025;-61
2023/02/17 04:23:08;;;;;;;6.03;3.63;;;;;;;18.13;48.12;101719.50;5033277;28;20520;-62
2023/02/17 04:25:34;;;;;;;7.78;4.45;;;;;;;18.11;48.44;101716.09;5015641;28;20180;-62
2023/02/17 04:27:59;;;;;;;9.63;4.75;;;;;;;18.07;48.26;101712.84;5033200;28;20034;-61
2023/02/17 04:30:25;;;;;;;8.15;4.32;;;;;;;18.10;49.09;101722.53;5015661;28;20040;-61
2023/02/17 04:32:50;;;;;;;7.25;3.80;;;;;;;18.09;48.40;101726.25;5032980;28;20036;-62
2023/02/17 04:35:16;;;;;;;7.32;3.90;;;;;;;18.10;48.74;101727.94;5015858;28;20025;-61
2023/02/17 04:37:41;;;;;;;5.05;3.60;;;;;;;18.10;48.71;101733.38;5032954;28;20044;-61
2023/02/17 04:40:09;;;;;;;7.05;3.45;;;;;;;18.08;48.55;101744.38;5033031;28;20045;-63
2023/02/17 04:42:35;;;;;;;4.72;3.20;;;;;;;18.08;48.35;101735.41;5015794;28;20112;-62
2023/02/17 04:45:00;;;;;;;5.35;3.22;;;;;;;18.11;48.04;101740.50;5015152;28;20037;-62
2023/02/17 04:47:26;;;;;;;4.95;2.95;;;;;;;18.13;48.61;101743.91;5015715;28;20025;-61
2023/02/17 04:49:51;;;;;;;4.97;3.28;;;;;;;18.13;48.58;101741.19;4998724;28;20029;-61
2023/02/17 04:52:16;;;;;;;3.90;2.92;;;;;;;18.12;48.94;101747.66;4998873;28;20041;-62
2023/02/17 04:54:42;;;;;;;4.88;3.22;;;;;;;18.11;48.51;101746.78;5015142;28;20440;-61
2023/02/17 04:57:07;;;;;;;5.15;2.85;;;;;;;18.11;48.23;101735.09;5032822;28;20038;-62
2023/02/17 04:59:32;;;;;;;3.47;2.70;;;;;;;18.09;48.52;101727.09;5032837;28;20025;-61
2023/02/17 05:01:58;;;;;;;5.57;2.75;;;;;;;18.09;48.32;101727.09;5015124;28;20553;-61
2023/02/17 05:04:23;;;;;;;5.10;2.60;;;;;;;18.11;48.04;101729.66;5032708;28;20037;-61
2023/02/17 05:06:49;;;;;;;4.15;2.90;;;;;;;18.12;48.67;101725.97;4998681;28;20088;-61
2023/02/17 05:09:14;;;;;;;7.32;2.72;;;;;;;18.11;48.91;101719.69;5015104;28;20040;-62
2023/02/17 05:11:39;;;;;;;3.25;2.15;;;;;;;18.12;47.99;101734.09;5015509;28;20113;-61
2023/02/17 05:14:05;;;;;;;4.93;2.30;;;;;;;18.13;48.77;101727.63;5032626;28;20513;-62
2023/02/17 05:16:30;;;;;;;3.75;2.33;;;;;;;18.14;48.69;101718.50;4998588;28;20045;-61
2023/02/17 05:18:55;;;;;;;4.28;2.45;;;;;;;18.15;48.61;101712.06;5017177;28;20125;-62
2023/02/17 05:21:21;;;;;;;4.88;2.67;;;;;;;18.15;48.00;101706.63;4986276;28;20029;-62
2023/02/17 05:23:46;;;;;;;5.20;2.83;;;;;;;18.14;47.82;101721.22;5036645;28;20100;-61
2023/02/17 05:26:12;;;;;;;3.53;2.30;;;;;;;18.11;48.85;101706.13;5019548;28;20163;-61
2023/02/17 05:28:37;;;;;;;5.22;2.38;;;;;;;18.15;48.38;101712.06;5035183;28;20030;-62
2023/02/17 05:31:03;;;;;;;3.88;2.58;;;;;;;18.14;48.40;101705.81;5036549;28;20033;-62
2023/02/17 05:33:29;;;;;;;3.95;2.65;;;;;;;18.14;48.51;101702.22;5018957;28;20084;-61
2023/02/17 05:35:54;;;;;;;5.28;2.45;;;;;;;18.12;48.27;101699.66;5036384;28;20441;-62
2023/02/17 05:38:20;;;;;;;4.07;2.33;;;;;;;18.14;47.88;101692.25;5003403;28;20038;-61
2023/02/17 05:40:45;;;;;;;2.50;2.20;;;;;;;18.18;48.53;101706.31;5004051;28;20030;-61
2023/02/17 05:43:10;;;;;;;4.13;2.60;;;;;;;18.19;48.83;101699.91;5020344;28;20041;-63
2023/02/17 05:45:36;;;;;;;4.90;2.50;;;;;;;18.18;47.91;101693.63;5002786;28;20050;-61
2023/02/17 05:48:01;;;;;;;3.22;2.25;;;;;;;18.18;48.93;101703.59;5018474;28;20169;-62
2023/02/17 05:50:27;;;;;;;3.10;2.40;;;;;;;18.20;47.82;101709.75;5035257;28;20021;-61
2023/02/17 05:52:52;;;;;;;3.17;2.47;;;;;;;18.15;48.57;101707.50;5018292;28;20045;-61
2023/02/17 05:55:18;;;;;;;3.53;2.90;;;;;;;18.15;48.29;101725.63;5002299;28;20033;-61
2023/02/17 05:57:43;;;;;;;3.55;2.50;;;;;;;18.14;48.18;101718.50;5036015;28;20037;-62
2023/02/17 06:00:09;;;;;;;7.28;2.58;;;;;;;18.10;48.39;101706.25;5001957;28;20037;-61
2023/02/17 06:02:35;;;;;;;3.28;2.92;;;;;;;18.10;48.59;101717.97;5035992;28;20031;-62
2023/02/17 06:05:00;;;;;;;5.35;2.55;;;;;;;18.09;48.02;101710.81;5035501;28;20037;-61
2023/02/17 06:07:25;;;;;;;3.38;2.10;;;;;;;18.08;49.16;101706.44;5001803;28;20120;-62
2023/02/17 06:09:51;;;;;;;4.82;2.70;;;;;;;18.10;48.56;101706.25;5001734;28;20025;-61
2023/02/17 06:12:16;;;;;;;5.30;2.15;;;;;;;18.14;48.65;101713.94;5018182;28;20021;-62
2023/02/17 06:14:42;;;;;;;4.53;2.90;;;;;;;18.15;49.17;101714.75;5036395;28;20049;-61
2023/02/17 06:17:08;;;;;;;6.20;2.85;;;;;;;18.15;48.88;101714.75;5001876;28;20092;-62
2023/02/17 06:19:33;;;;;;;5.35;3.33;;;;;;;18.12;48.14;101721.34;5035431;28;20048;-61
2023/02/17 06:21:58;;;;;;;4.75;2.42;;;;;;;18.16;48.99;101711.91;5018081;28;20429;-61
2023/02/17 06:24:24;;;;;;;3.97;2.45;;;;;;;18.16;48.92;101721.91;5017510;28;20117;-62
2023/02/17 06:26:49;;;;;;;3.97;2.33;;;;;;;18.15;48.50;101725.63;5001284;28;20434;-61
2023/02/17 06:29:15;;;;;;;3.95;2.78;;;;;;;18.16;49.00;101732.75;5035187;28;20108;-61
2023/02/17 06:31:40;;;;;;;5.80;2.20;;;;;;;18.16;48.92;101727.34;5000831;28;20060;-61
2023/02/17 06:34:05;;;;;;;4.38;2.70;;;;;;;18.16;49.26;101727.34;5017742;28;20030;-62
2023/02/17 06:36:31;;;;;;;7.78;2.55;;;;;;;18.13;48.11;101722.22;5035454;28;20044;-61
2023/02/17 06:38:57;;;;;;;3.10;2.22;;;;;;;18.13;49.07;101722.22;5035067;28;20030;-61
2023/02/17 06:41:22;;;;;;;3.13;2.20;;;;;;;18.12;49.16;101709.69;5017944;28;20105;-61
2023/02/17 06:43:48;;;;;;;5.28;2.53;;;;;;;18.10;48.72;101715.25;5033892;28;20498;-62
2023/02/17 06:46:13;;;;;;;3.72;2.70;;;;;;;18.11;48.92;101718.81;5034053;28;20029;-61
2023/02/17 06:48:38;;;;;;;2.92;2.22;;;;;;;18.10;48.09;101715.25;5035066;28;20034;-61
2023/02/17 06:51:04;;;;;;;6.32;3.25;;;;;;;18.10;48.96;101719.81;5000694;28;20446;-61
2023/02/17 06:53:29;;;;;;;4.13;2.53;;;;;;;18.10;49.25;101717.09;5035137;28;20037;-61
2023/02/17 06:55:55;;;;;;;6.13;2.67;;;;;;;18.07;49.18;101717.41;5017255;28;20037;-62
2023/02/17 06:58:21;;;;;;;5.53;3.10;;;;;;;18.12;48.90;101720.53;5000855;28;20509;-60
2023/02/17 07:00:47;;;;;;;7.95;2.97;;;;;;;18.08;48.71;101728.13;5034956;28;20057;-61
2023/02/17 07:03:12;;;;;;;5.50;2.33;;;;;;;18.07;49.03;101722.84;5034674;28;20025;-61
2023/02/17 07:05:39;;;;;;;5.00;2.92;;;;;;;18.07;48.68;101726.41;5033838;28;20065;-61
2023/02/17 07:08:05;;;;;;;3.97;2.85;;;;;;;18.07;49.14;101734.53;5034676;28;20029;-61
2023/02/17 07:10:31;;;;;;;5.20;2.92;;;;;;;18.08;49.77;101735.41;5016907;28;20043;-61
2023/02/17 07:12:56;;;;;;;8.10;2.78;;;;;;;18.03;49.52;101725.84;5017005;28;20132;-61
2023/02/17 07:15:21;;;;;;;5.00;2.97;;;;;;;18.09;49.17;101737.94;5034460;28;20029;-60
2023/02/17 07:17:47;;;;;;;8.40;3.08;;;;;;;18.08;48.95;101727.25;5016716;28;20057;-61
2023/02/17 07:20:12;;;;;;;3.25;2.60;;;;;;;18.10;48.99;101727.94;5034541;28;20041;-61
2023/02/17 07:22:38;;;;;;;7.60;3.05;;;;;;;18.10;48.63;101739.66;5016757;28;20040;-61
2023/02/17 07:25:04;;;;;;;4.35;2.67;;;;;;;18.12;48.28;101731.38;5016774;28;20029;-61
2023/02/17 07:27:30;;;;;;;5.05;2.92;;;;;;;18.13;48.76;101735.78;5034451;28;20037;-61
2023/02/17 07:29:56;;;;;;;5.20;2.60;;;;;;;18.15;49.69;101731.03;5034272;28;20049;-60
2023/02/17 07:32:21;;;;;;;5.90;2.97;;;;;;;18.18;48.55;101719.88;5034577;28;20061;-61
2023/02/17 07:34:46;;;;;;;10.57;3.28;;;;;;;18.17;49.02;101720.91;5034298;28;20033;-61
2023/02/17 07:37:12;;;;;;;6.30;2.83;;;;;;;18.20;49.08;101698.91;5034153;28;20468;-62
2023/02/17 07:39:37;;;;;;;7.53;3.00;;;;;;;18.19;49.33;101718.88;5033995;28;20033;-61
2023/02/17 07:42:05;;;;;;;4.55;3.05;;;;;;;18.21;48.58;101728.56;4999704;28;20025;-60
2023/02/17 07:44:30;;;;;;;4.72;2.78;;;;;;;18.21;49.48;101712.28;5016982;28;20473;-61
2023/02/17 07:46:56;;;;;;;6.90;3.10;;;;;;;18.25;49.55;101737.25;5016133;28;20039;-61
2023/02/17 07:49:21;;;;;;;6.93;3.15;;;;;;;18.28;49.21;101720.66;5033994;28;20040;-61
2023/02/17 07:51:46;;;;;;;6.15;3.15;;;;;;;18.32;48.89;101730.16;5016309;28;20052;-61
2023/02/17 07:54:12;;;;;;;3.75;2.63;;;;;;;18.34;49.15;101736.31;5015976;28;20441;-61
2023/02/17 07:56:38;;;;;;;6.95;3.13;;;;;;;18.35;49.17;101732.56;5016512;28;20124;-60
2023/02/17 07:59:08;;;;;;;4.93;3.13;;;;;;;18.37;48.88;101736.81;5033670;28;20128;-61
2023/02/17 08:01:33;;;;;;;5.05;3.03;;;;;;;18.40;49.52;101732.94;5015896;28;20083;-61
2023/02/17 08:03:58;;;;;;;5.57;3.28;;;;;;;18.42;48.84;101731.81;5016015;28;20042;-61
2023/02/17 08:06:24;;;;;;;5.35;3.50;;;;;;;18.47;49.24;101732.19;5015932;28;20516;-61
2023/02/17 08:14:20;;;;;;;6.30;3.38;;;;;;;18.60;49.14;101726.34;5033674;28;20140;-60
2023/02/17 08:16:46;;;;;;;4.28;2.72;;;;;;;18.66;48.97;101714.88;5015763;28;20033;-61
2023/02/17 08:19:11;;;;;;;5.60;2.80;;;;;;;18.71;48.44;101734.22;5015578;28;20410;-61
2023/02/17 08:21:37;;;;;;;3.88;2.40;;;;;;;18.70;48.92;101727.13;5033394;28;20033;-60
2023/02/17 08:24:02;;;;;;;5.03;3.08;;;;;;;18.75;49.09;101729.34;5015766;28;20091;-60
2023/02/17 08:26:28;;;;;;;6.32;3.50;;;;;;;18.80;49.25;101730.56;5016121;28;20033;-61
2023/02/17 08:28:54;;;;;;;4.50;3.20;;;;;;;18.82;48.80;101736.69;5015692;28;20064;-61
2023/02/17 08:31:31;;;;;;;5.22;2.72;;;;;;;18.83;48.86;101748.38;5033353;28;20460;-60
2023/02/17 08:33:57;;;;;;;5.53;3.35;;;;;;;18.80;49.17;101744.13;5015503;28;20586;-61
2023/02/17 08:36:23;;;;;;;5.70;3.45;;;;;;;18.85;48.71;101736.34;5015624;28;20080;-60
2023/02/17 08:38:50;;;;;;;5.32;3.13;;;;;;;18.90;49.00;101738.59;5015305;28;20021;-61
2023/02/17 08:41:28;;;;;;;6.40;3.10;;;;;;;18.99;49.16;101749.34;5033607;28;20025;-60
2023/02/17 08:43:54;;;;;;;5.30;2.80;;;;;;;19.06;49.03;101750.41;5015607;28;20116;-61
2023/02/17 08:46:19;;;;;;;6.03;3.38;;;;;;;19.08;48.63;101748.38;4998936;28;20409;-60
2023/02/17 08:48:45;;;;;;;6.70;2.78;;;;;;;19.08;49.08;101747.53;4998936;28;20030;-60
2023/02/17 08:51:13;;;;;;;4.88;2.80;;;;;;;19.10;48.60;101751.78;5015160;28;20108;-60
2023/02/17 08:53:38;;;;;;;5.65;3.67;;;;;;;19.18;48.75;101749.09;4998940;28;20053;-60
2023/02/17 08:56:04;;;;;;;4.28;2.78;;;;;;;19.26;48.72;101750.16;5032898;28;20064;-60
2023/02/17 08:58:30;;;;;;;5.43;3.40;;;;;;;19.28;49.02;101743.56;5015122;28;20034;-60
2023/02/17 09:00:55;;;;;;;5.35;2.55;;;;;;;19.27;48.60;101735.53;5015258;28;20564;-60
2023/02/17 09:03:21;;;;;;;4.35;2.33;;;;;;;19.29;48.59;101744.41;5015529;28;20120;-61
2023/02/17 09:05:46;;;;;;;2.85;2.28;;;;;;;19.36;48.49;101750.88;5033220;28;20021;-63
2023/02/17 09:08:12;;;;;;;4.50;2.60;;;;;;;19.36;48.74;101756.31;5033092;28;20049;-62
2023/02/17 09:10:37;;;;;;;5.40;2.63;;;;;;;19.43;48.00;101752.78;5032866;28;20033;-61
2023/02/17 09:13:03;;;;;;;5.82;2.90;;;;;;;19.53;48.23;101760.84;4998941;28;20124;-62
2023/02/17 09:15:29;;;;;;;4.47;2.58;;;;;;;19.32;48.54;101731.31;5015136;28;20116;-61
2023/02/17 09:17:54;;;;;;;4.40;2.65;;;;;;;19.50;48.67;101761.16;5032525;28;20022;-61
2023/02/17 09:20:20;;;;;;;5.90;3.17;;;;;;;19.54;48.40;101762.53;4999218;28;20022;-61
2023/02/17 09:22:45;;;;;;;3.63;2.15;;;;;;;19.60;48.74;101761.84;5015035;28;20510;-61
2023/02/17 09:25:10;;;;;;;5.78;2.72;;;;;;;19.63;48.44;101765.09;5032689;28;20042;-61
2023/02/17 09:27:36;;;;;;;3.42;2.22;;;;;;;19.61;49.38;101760.84;5032609;28;20573;-62
2023/02/17 09:30:01;;;;;;;4.90;2.28;;;;;;;19.63;48.55;101765.09;5014953;28;20482;-61
2023/02/17 09:32:27;;;;;;;4.70;2.60;;;;;;;19.61;48.18;101760.84;5015321;28;20029;-62
2023/02/17 09:34:53;;;;;;;4.78;2.53;;;;;;;19.88;48.33;101752.41;5014941;28;20409;-61
2023/02/17 09:37:19;;;;;;;3.88;2.38;;;;;;;19.93;48.52;101755.53;4998694;28;20042;-61
2023/02/17 09:39:45;;;;;;;3.67;2.25;;;;;;;19.84;48.74;101739.34;4998443;28;20029;-61
2023/02/17 09:42:25;;;;;;;3.45;2.30;;;;;;;20.18;47.70;101740.91;5014605;28;20030;-61
2023/02/17 09:45:33;;;;;;;4.57;2.22;;;;;;;20.58;46.89;101740.06;5032444;28;20079;-61
2023/02/17 09:48:02;;;;;;;2.67;1.88;;;;;;;20.43;48.43;101751.84;5031164;28;20014;-61
2023/02/17 09:50:42;;;;;;;4.25;2.03;;;;;;;20.69;47.28;101736.13;5015263;28;20047;-61
2023/02/17 09:53:19;;;;;;;4.10;2.75;;;;;;;20.69;47.25;101730.69;5015085;28;20083;-61
2023/02/17 09:55:47;;;;;;;2.03;1.52;;;;;;;20.76;47.77;101734.44;4998107;28;20067;-61
2023/02/17 09:58:26;;;;;;;4.63;2.67;;;;;;;20.77;46.91;101750.59;4998188;28;20048;-62
2023/02/17 10:00:59;;;;;;;4.03;2.05;;;;;;;20.87;47.18;101747.69;5032490;28;20033;-61
2023/02/17 10:03:29;;;;;;;3.67;1.80;;;;;;;20.82;47.83;101750.97;5014887;28;20032;-61
2023/02/17 10:06:14;;;;;;;5.65;2.25;;;;;;;20.86;47.70;101740.53;5018728;28;20032;-62
2023/02/17 10:08:50;;;;;;;2.83;1.90;;;;;;;21.07;46.63;101746.31;5003139;28;20437;-61
2023/02/17 10:11:39;;;;;;;5.70;2.60;;;;;;;21.33;46.55;101741.44;5019366;28;20045;-61
2023/02/17 10:14:16;;;;;;;5.18;2.25;;;;;;;21.44;46.70;101743.78;5035729;28;20049;-61
2023/02/17 10:16:50;;;;;;;4.88;2.90;;;;;;;21.55;46.72;101752.59;5001725;28;20121;-61
2023/02/17 10:19:40;;;;;;;6.13;2.00;;;;;;;21.48;46.88;101734.22;5017911;28;20037;-62
2023/02/17 10:22:20;;;;;;;4.53;1.95;;;;;;;21.57;47.20;101751.41;5018108;28;20100;-61
2023/02/17 10:24:45;;;;;;;5.05;1.95;;;;;;;21.43;46.95;101768.50;5017935;28;20034;-61
2023/02/17 10:27:14;;;;;;;4.80;2.70;;;;;;;21.41;46.49;101755.03;5034257;28;20417;-61
2023/02/17 10:29:45;;;;;;;3.25;2.10;;;;;;;21.50;46.83;101755.84;5035908;28;20022;-61
2023/02/17 10:32:21;;;;;;;7.18;2.22;;;;;;;21.44;46.15;101762.84;5017649;28;20045;-61
2023/02/17 10:35:08;;;;;;;3.33;2.10;;;;;;;21.45;47.31;101772.75;5035372;28;20498;-62
2023/02/17 10:37:47;;;;;;;4.75;1.65;;;;;;;21.37;47.10;101759.16;5035380;28;20058;-61
2023/02/17 10:40:18;;;;;;;3.92;1.98;;;;;;;21.35;47.50;101766.66;5001273;28;20038;-61
2023/02/17 10:42:44;;;;;;;5.18;2.05;;;;;;;21.33;46.64;101752.34;5017557;28;20080;-61
2023/02/17 10:45:31;;;;;;;2.95;1.92;;;;;;;21.36;46.75;101764.75;5017710;28;20033;-61
2023/02/17 10:48:15;;;;;;;6.68;2.13;;;;;;;21.36;46.56;101771.06;5001128;28;20029;-61
2023/02/17 10:50:41;;;;;;;4.78;1.85;;;;;;;21.41;47.35;101770.56;5017909;28;20021;-62
2023/02/17 10:53:25;;;;;;;4.03;2.05;;;;;;;21.34;47.28;101767.69;5017242;28;20034;-61
2023/02/17 10:56:01;;;;;;;3.60;1.60;;;;;;;21.30;47.48;101779.13;5017286;28;20599;-62
2023/02/17 10:58:44;;;;;;;4.93;2.20;;;;;;;21.22;46.86;101788.16;5034960;28;20038;-61
2023/02/17 11:01:10;;;;;;;3.83;1.95;;;;;;;21.14;47.39;101796.34;5035137;28;20034;-62
2023/02/17 11:03:39;;;;;;;2.97;1.80;;;;;;;21.16;47.43;101785.31;5000851;28;20025;-61
2023/02/17 11:06:21;;;;;;;2.42;1.75;;;;;;;21.19;46.48;101782.22;5001009;28;20481;-62
2023/02/17 11:08:59;;;;;;;4.07;1.70;;;;;;;21.38;46.77;101788.09;5017564;28;20101;-61
2023/02/17 11:11:29;;;;;;;3.28;1.30;;;;;;;21.43;46.95;101780.25;5017196;28;20567;-61
2023/02/17 11:13:54;;;;;;;4.25;1.75;;;;;;;21.54;46.82;101770.84;5017422;28;20038;-61
2023/02/17 11:16:28;;;;;;;3.95;1.58;;;;;;;21.63;46.75;101771.66;5016474;28;20425;-61
2023/02/17 11:18:54;;;;;;;3.90;1.77;;;;;;;21.72;46.88;101763.22;5033495;28;20033;-61
2023/02/17 11:21:20;;;;;;;5.32;1.50;;;;;;;21.88;46.14;101767.78;5016863;28;20033;-61
2023/02/17 11:23:58;;;;;;;6.13;2.25;;;;;;;22.00;45.71;101767.19;5000881;28;20034;-62
2023/02/17 11:26:26;;;;;;;3.50;1.60;;;;;;;22.05;46.08;101759.31;5017100;28;20375;-61
2023/02/17 11:28:52;;;;;;;3.15;1.65;;;;;;;22.10;46.56;101761.50;5034379;28;20053;-61
2023/02/17 11:31:23;;;;;;;4.82;1.75;;;;;;;22.30;45.78;101753.69;5000456;28;20049;-61
2023/02/17 11:33:48;;;;;;;3.47;1.70;;;;;;;22.44;44.98;101736.50;5033426;28;20029;-62